Chon Buri, Thailand

6:26 AM +07 on May 25, 2017 (GMT +0700)
Bangkok (Suvarnabhumi) | | Change Station

Elev 7 ft 13.37 °N, 100.98 °E | Updated 26 minutes ago

Light Rain
Light Rain
77 °F
Feels Like 77 °F
N
4
Wind Variable Wind from SW

Today
High -- | Low -- °F
--% Chance of Precip.
Yesterday
High -- | Low -- °F
Precip. -- in
Pressure 29.71 in
Visibility 5.6 miles
Clouds Few 2000 ft
Scattered Clouds 3500 ft
Mostly Cloudy 10000 ft
Dew Point 73 °F
Humidity 89%
Rainfall 0.00 in
Snow Depth Not available.
5:48 AM 6:37 PM
Waning Crescent, 1% visible
METAR VTBS 242300Z 23003KT 190V260 9000 -RA FEW020 SCT035 BKN100 25/23 Q1006 NOSIG
Pressure 29.71 in
Visibility 5.6 miles
Clouds Few 2000 ft
Scattered Clouds 3500 ft
Mostly Cloudy 10000 ft
Dew Point 73 °F
Humidity 89%
Rainfall 0.00 in
Snow Depth Not available.
5:48 AM 6:37 PM
Waning Crescent, 1% visible
METAR VTBS 242300Z 23003KT 190V260 9000 -RA FEW020 SCT035 BKN100 25/23 Q1006 NOSIG

Get Severe Weather Alerts

Thanks for signing up!

Be on the lookout for a verification email in your inbox.

You'll start receiving the daily forecast at 6 AM.

×

10-Day Weather Forecast

No radar image for this location.
×

Almanac

Astronomy

May. 25, 2017 Rise Set
Actual Time
Civil Twilight
Nautical Twilight
Astronomical Twilight
Moon
Length of Visible Light
Length of Day
Tomorrow will be .
, % of the Moon is Illuminated

Today's Extremes

Country Highs Country Lows

Community

WunderPhotos

Category 6

Welcome to Category 6. This is the collective home for Weather Underground's featured writeups by Dr. Jeff Masters (right), Bob Henson (left), Chris Burt, and other regular contributors.

Nearby

Air Quality

  Air Quality AQ Index Pollutant
Not available.

Snow Depth

Station Depth Elevation

Earthquake Activity

City Distance Mag. Time & Date
Minimum magnitude displayed is 2.5.

Coastal Water Temperatures

Place Temperature

Stations

Nearby Weather Stations

Station Location Temp. Windchill Dew Point Humidity Wind Precip. Elev Updated Type